Time;durP1;ratioP1;P1;durP2;ratioP2;P2;SDS_P1;SDS_P2;PMS_P1;PMS_P2;Temp;Humidity;BMP_temperature;BMP_pressure;BME280_temperature;BME280_humidity;BME280_pressure;Samples;Min_cycle;Max_cycle;Signal;HPM_P1;HPM_P2
2021/09/22 00:02:14;;;;;;;1.52;1.42;;;;;;;;;;5029154;28;20081;-79
2021/09/22 00:04:41;;;;;;;1.33;1.20;;;;;;;;;;5047154;28;20030;-79
2021/09/22 00:07:08;;;;;;;1.20;1.20;;;;;;;;;;5029338;28;20128;-79
2021/09/22 00:09:34;;;;;;;1.48;1.20;;;;;;;;;;5030773;28;20045;-79
2021/09/22 00:12:01;;;;;;;1.60;1.25;;;;;;;;;;5029920;28;20099;-79
2021/09/22 00:14:28;;;;;;;1.42;1.35;;;;;;;;;;5046110;28;20092;-79
2021/09/22 00:16:55;;;;;;;3.28;1.20;;;;;;;;;;5029654;28;20061;-79
2021/09/22 00:19:22;;;;;;;1.20;1.10;;;;;;;;;;5030243;28;20033;-79
2021/09/22 00:21:48;;;;;;;2.10;2.00;;;;;;;;;;5031208;28;20478;-79
2021/09/22 00:24:15;;;;;;;1.58;1.48;;;;;;;;;;5029206;28;20029;-79
2021/09/22 00:26:42;;;;;;;1.88;1.10;;;;;;;;;;5029523;28;20108;-79
2021/09/22 00:29:09;;;;;;;2.05;1.20;;;;;;;;;;5028925;28;20148;-79
2021/09/22 00:31:36;;;;;;;1.48;1.38;;;;;;;;;;5013616;28;20045;-79
2021/09/22 00:34:04;;;;;;;1.73;1.20;;;;;;;;;;5031146;28;20044;-79
2021/09/22 00:36:31;;;;;;;2.38;1.10;;;;;;;;;;5055521;28;20423;-79
2021/09/22 00:38:58;;;;;;;1.25;1.20;;;;;;;;;;5051266;28;20397;-79
2021/09/22 00:41:25;;;;;;;5.47;1.10;;;;;;;;;;5031297;28;20573;-79
2021/09/22 00:43:52;;;;;;;2.10;1.38;;;;;;;;;;5030023;28;20045;-79
2021/09/22 00:46:18;;;;;;;1.75;1.38;;;;;;;;;;5030366;28;20095;-79
2021/09/22 00:48:45;;;;;;;1.50;1.30;;;;;;;;;;5026013;28;20116;-79
2021/09/22 00:51:12;;;;;;;2.85;1.00;;;;;;;;;;5053242;28;20069;-79
2021/09/22 00:53:39;;;;;;;1.23;1.10;;;;;;;;;;5029874;28;20045;-79
2021/09/22 00:56:06;;;;;;;1.30;1.20;;;;;;;;;;5060878;28;20057;-79
2021/09/22 00:58:33;;;;;;;6.53;1.85;;;;;;;;;;5027710;28;20095;-79
2021/09/22 01:01:00;;;;;;;1.20;1.20;;;;;;;;;;5024858;28;20092;-79
2021/09/22 01:03:27;;;;;;;2.38;1.45;;;;;;;;;;5048699;28;20049;-79
2021/09/22 01:05:54;;;;;;;2.60;1.00;;;;;;;;;;5027786;28;20037;-79
2021/09/22 01:08:21;;;;;;;1.58;1.10;;;;;;;;;;5007959;28;20095;-79
2021/09/22 01:10:49;;;;;;;1.02;1.02;;;;;;;;;;5030031;28;20045;-79
2021/09/22 01:13:16;;;;;;;4.43;1.20;;;;;;;;;;5028427;28;20049;-79
2021/09/22 01:15:43;;;;;;;2.50;1.10;;;;;;;;;;5028413;28;20037;-79
2021/09/22 01:18:17;;;;;;;1.10;1.00;;;;;;;;;;5029634;28;20046;-79
2021/09/22 01:20:45;;;;;;;1.20;1.20;;;;;;;;;;5011538;28;20033;-79
2021/09/22 01:23:12;;;;;;;3.53;1.00;;;;;;;;;;5011967;28;20494;-79
2021/09/22 01:25:40;;;;;;;1.08;0.98;;;;;;;;;;5029437;28;20042;-79
2021/09/22 01:28:07;;;;;;;4.13;1.35;;;;;;;;;;5028838;28;20091;-79
2021/09/22 01:30:37;;;;;;;2.30;1.35;;;;;;;;;;5030335;28;20566;-79
2021/09/22 01:33:05;;;;;;;1.17;1.17;;;;;;;;;;5044444;28;20127;-79
2021/09/22 01:35:39;;;;;;;1.45;1.00;;;;;;;;;;5029536;28;20040;-79
2021/09/22 01:38:07;;;;;;;1.35;1.08;;;;;;;;;;5060855;28;20588;-79
2021/09/22 01:40:34;;;;;;;2.75;1.58;;;;;;;;;;5058800;28;20474;-79
2021/09/22 01:43:01;;;;;;;1.13;1.13;;;;;;;;;;5010570;28;20061;-79
2021/09/22 01:45:28;;;;;;;1.35;1.25;;;;;;;;;;5023223;28;20066;-79
2021/09/22 01:47:55;;;;;;;1.17;1.17;;;;;;;;;;5018987;28;20099;-79
2021/09/22 01:50:21;;;;;;;2.47;1.25;;;;;;;;;;5028793;28;20045;-79
2021/09/22 01:52:50;;;;;;;1.10;1.10;;;;;;;;;;5026903;28;20053;-79
2021/09/22 01:55:21;;;;;;;2.05;1.30;;;;;;;;;;5028549;28;20084;-79
2021/09/22 01:57:49;;;;;;;4.78;1.83;;;;;;;;;;5027685;28;20041;-79
2021/09/22 02:00:20;;;;;;;1.13;1.00;;;;;;;;;;5009952;28;21634;-79
2021/09/22 02:02:47;;;;;;;1.20;1.20;;;;;;;;;;5024018;28;20068;-79
2021/09/22 02:05:14;;;;;;;1.10;1.10;;;;;;;;;;5027489;28;20528;-79
2021/09/22 02:07:40;;;;;;;1.13;1.13;;;;;;;;;;5028214;28;20543;-79
2021/09/22 02:10:07;;;;;;;1.95;1.00;;;;;;;;;;5036229;28;20471;-79
2021/09/22 02:12:34;;;;;;;1.95;1.20;;;;;;;;;;5029508;28;20064;-79
2021/09/22 02:15:01;;;;;;;1.52;1.05;;;;;;;;;;5024771;28;20100;-79
2021/09/22 02:17:28;;;;;;;2.15;1.20;;;;;;;;;;5027641;28;20358;-79
2021/09/22 02:19:55;;;;;;;2.15;1.10;;;;;;;;;;5027462;28;20517;-79
2021/09/22 02:22:22;;;;;;;2.90;1.23;;;;;;;;;;5017105;28;20070;-79
2021/09/22 02:24:48;;;;;;;7.00;1.17;;;;;;;;;;5057168;28;20045;-79
2021/09/22 02:27:18;;;;;;;1.40;1.30;;;;;;;;;;5028484;28;20091;-79
2021/09/22 02:29:46;;;;;;;1.20;1.20;;;;;;;;;;5060471;28;20049;-79
2021/09/22 02:32:12;;;;;;;2.92;1.85;;;;;;;;;;5026388;28;20049;-79
2021/09/22 02:34:40;;;;;;;1.33;1.10;;;;;;;;;;5029294;28;20140;-79
2021/09/22 02:37:07;;;;;;;3.25;1.10;;;;;;;;;;5025469;28;20513;-79
2021/09/22 02:39:34;;;;;;;1.33;1.33;;;;;;;;;;5017718;28;20033;-79
2021/09/22 02:42:00;;;;;;;6.88;1.75;;;;;;;;;;5027778;28;20036;-79
2021/09/22 02:44:27;;;;;;;3.42;1.48;;;;;;;;;;5028009;28;20457;-79
2021/09/22 02:46:54;;;;;;;3.13;1.25;;;;;;;;;;5028044;28;20053;-79
2021/09/22 02:49:20;;;;;;;2.17;1.10;;;;;;;;;;5025638;28;20137;-79
2021/09/22 02:51:47;;;;;;;1.00;1.00;;;;;;;;;;5026669;28;20482;-79
2021/09/22 02:54:14;;;;;;;1.30;1.30;;;;;;;;;;5020873;28;20042;-79
2021/09/22 02:56:41;;;;;;;1.10;1.10;;;;;;;;;;5019786;28;20056;-79
2021/09/22 02:59:08;;;;;;;2.20;1.33;;;;;;;;;;5027866;28;20072;-79
2021/09/22 03:01:34;;;;;;;1.40;1.10;;;;;;;;;;5028762;28;20045;-79
2021/09/22 03:04:02;;;;;;;1.27;1.17;;;;;;;;;;5028912;28;20046;-79
2021/09/22 03:06:29;;;;;;;0.98;0.98;;;;;;;;;;5028730;28;20189;-79
2021/09/22 03:08:56;;;;;;;1.20;1.20;;;;;;;;;;5028297;28;20041;-79
2021/09/22 03:11:23;;;;;;;1.10;1.10;;;;;;;;;;5044513;28;20452;-79
2021/09/22 03:13:49;;;;;;;1.65;1.08;;;;;;;;;;5026646;28;20095;-79
2021/09/22 03:16:16;;;;;;;1.10;1.10;;;;;;;;;;5027926;28;20401;-79
2021/09/22 03:18:43;;;;;;;2.08;1.20;;;;;;;;;;5059644;28;20374;-79
2021/09/22 03:21:10;;;;;;;1.23;1.10;;;;;;;;;;5026714;28;20087;-79
2021/09/22 03:23:37;;;;;;;1.58;1.25;;;;;;;;;;5031219;28;20041;-79
2021/09/22 03:26:03;;;;;;;1.05;1.05;;;;;;;;;;5030865;28;20722;-79
2021/09/22 03:28:30;;;;;;;3.97;1.00;;;;;;;;;;5050589;28;20065;-79
2021/09/22 03:30:57;;;;;;;2.78;1.00;;;;;;;;;;5032419;28;20524;-79
2021/09/22 03:33:24;;;;;;;1.40;1.40;;;;;;;;;;5030153;28;20037;-79
2021/09/22 03:35:51;;;;;;;4.05;1.02;;;;;;;;;;5032197;28;20045;-79
2021/09/22 03:38:18;;;;;;;1.63;1.20;;;;;;;;;;5031598;28;20096;-79
2021/09/22 03:40:45;;;;;;;3.92;1.50;;;;;;;;;;5031005;28;20433;-79
2021/09/22 03:43:11;;;;;;;1.17;1.10;;;;;;;;;;5040789;28;20077;-79
2021/09/22 03:45:38;;;;;;;2.03;2.03;;;;;;;;;;5026764;28;20068;-79
2021/09/22 03:48:04;;;;;;;2.70;1.42;;;;;;;;;;5031599;28;20049;-79
2021/09/22 03:50:32;;;;;;;1.80;1.20;;;;;;;;;;5032430;28;20096;-79
2021/09/22 03:52:58;;;;;;;1.30;1.25;;;;;;;;;;5028102;28;20038;-79
2021/09/22 03:55:25;;;;;;;5.63;1.95;;;;;;;;;;5063683;28;20042;-79
2021/09/22 03:57:52;;;;;;;5.03;1.83;;;;;;;;;;5030886;28;20065;-79
2021/09/22 04:00:19;;;;;;;3.83;1.40;;;;;;;;;;5030338;28;20038;-79
2021/09/22 04:02:45;;;;;;;3.60;1.00;;;;;;;;;;5031393;28;20041;-79
2021/09/22 04:05:12;;;;;;;1.63;1.52;;;;;;;;;;5014339;28;20452;-79
2021/09/22 04:07:39;;;;;;;2.05;1.42;;;;;;;;;;5030624;28;20045;-79
2021/09/22 04:10:06;;;;;;;1.35;1.35;;;;;;;;;;5030817;28;20482;-79
2021/09/22 04:12:33;;;;;;;3.97;1.30;;;;;;;;;;5046805;28;20046;-79
2021/09/22 04:15:00;;;;;;;1.10;1.10;;;;;;;;;;5027300;28;20038;-79
2021/09/22 04:17:27;;;;;;;1.10;1.10;;;;;;;;;;5029955;28;20115;-79
2021/09/22 04:19:53;;;;;;;4.00;1.40;;;;;;;;;;5030725;28;20061;-79
2021/09/22 04:22:20;;;;;;;1.10;1.10;;;;;;;;;;5030314;28;20037;-79
2021/09/22 04:24:47;;;;;;;3.00;1.00;;;;;;;;;;5031547;28;20477;-79
2021/09/22 04:27:14;;;;;;;1.50;0.90;;;;;;;;;;5030014;28;20447;-79
2021/09/22 04:29:42;;;;;;;1.15;1.15;;;;;;;;;;5029573;28;20073;-79
2021/09/22 04:32:09;;;;;;;20.77;2.55;;;;;;;;;;5030263;28;20128;-79
2021/09/22 04:34:36;;;;;;;1.45;1.45;;;;;;;;;;5029464;28;20744;-79
2021/09/22 04:37:03;;;;;;;3.75;1.35;;;;;;;;;;5024204;28;20080;-79
2021/09/22 04:39:30;;;;;;;1.15;1.05;;;;;;;;;;5030006;28;20048;-79
2021/09/22 04:41:57;;;;;;;1.85;1.38;;;;;;;;;;5026528;28;20111;-79
2021/09/22 04:44:25;;;;;;;3.00;1.67;;;;;;;;;;5031421;28;20041;-79
2021/09/22 04:46:51;;;;;;;1.67;1.58;;;;;;;;;;5029963;28;20033;-79
2021/09/22 04:49:18;;;;;;;1.23;1.23;;;;;;;;;;5030976;28;20034;-79
2021/09/22 04:51:45;;;;;;;1.38;1.27;;;;;;;;;;5030681;28;20069;-79
2021/09/22 04:54:12;;;;;;;1.10;1.00;;;;;;;;;;5030269;28;20529;-79
2021/09/22 04:56:38;;;;;;;1.45;1.45;;;;;;;;;;5030432;28;20042;-79
2021/09/22 04:59:05;;;;;;;1.27;1.10;;;;;;;;;;5045366;28;20079;-79
2021/09/22 05:01:32;;;;;;;1.20;1.05;;;;;;;;;;5030479;28;20056;-79
2021/09/22 05:03:59;;;;;;;1.13;1.13;;;;;;;;;;5013581;28;20769;-79
2021/09/22 05:06:26;;;;;;;2.85;1.10;;;;;;;;;;5029605;28;20075;-79
2021/09/22 05:08:53;;;;;;;6.53;3.00;;;;;;;;;;5028722;28;20045;-79
2021/09/22 05:11:20;;;;;;;1.30;1.30;;;;;;;;;;5062526;28;20045;-79
2021/09/22 05:13:47;;;;;;;2.08;1.25;;;;;;;;;;5029538;28;20585;-79
2021/09/22 05:16:14;;;;;;;1.15;1.10;;;;;;;;;;5029417;28;20065;-79
2021/09/22 05:18:41;;;;;;;1.27;1.27;;;;;;;;;;5027663;28;20053;-78
2021/09/22 05:21:07;;;;;;;1.15;1.13;;;;;;;;;;5028950;28;20084;-78
2021/09/22 05:23:34;;;;;;;2.30;1.25;;;;;;;;;;5044123;28;20037;-80
2021/09/22 05:26:01;;;;;;;1.58;1.38;;;;;;;;;;5031087;28;20049;-80
2021/09/22 05:28:27;;;;;;;1.70;1.60;;;;;;;;;;5022803;28;20107;-80
2021/09/22 05:30:54;;;;;;;2.15;1.30;;;;;;;;;;5031347;28;20041;-80
2021/09/22 05:33:21;;;;;;;1.67;1.55;;;;;;;;;;5031050;28;20045;-80
2021/09/22 05:35:47;;;;;;;1.60;1.42;;;;;;;;;;5020575;28;20054;-80
2021/09/22 05:38:14;;;;;;;2.30;1.42;;;;;;;;;;5040424;28;20079;-80
2021/09/22 05:40:41;;;;;;;1.88;1.80;;;;;;;;;;5061941;28;20507;-79
2021/09/22 05:43:08;;;;;;;1.45;1.45;;;;;;;;;;5028964;28;20073;-80
2021/09/22 05:45:34;;;;;;;1.55;1.55;;;;;;;;;;5027793;28;20060;-80
2021/09/22 05:48:01;;;;;;;5.50;1.55;;;;;;;;;;5030238;28;20080;-79
2021/09/22 05:50:29;;;;;;;1.80;1.40;;;;;;;;;;5028880;28;20076;-79
2021/09/22 05:52:56;;;;;;;2.00;1.30;;;;;;;;;;5030786;28;20044;-79
2021/09/22 05:55:23;;;;;;;2.80;1.30;;;;;;;;;;5029805;28;20045;-79
2021/09/22 05:57:49;;;;;;;1.45;1.35;;;;;;;;;;5029267;28;20038;-79
2021/09/22 06:00:16;;;;;;;3.70;1.27;;;;;;;;;;5029497;28;20041;-79
2021/09/22 06:02:43;;;;;;;5.57;1.13;;;;;;;;;;5029959;28;20037;-79
2021/09/22 06:05:10;;;;;;;2.58;1.00;;;;;;;;;;5011579;28;20042;-79
2021/09/22 06:07:37;;;;;;;1.75;1.02;;;;;;;;;;5030206;28;20486;-79
2021/09/22 06:10:05;;;;;;;1.40;1.17;;;;;;;;;;5027716;28;20516;-79
2021/09/22 06:12:34;;;;;;;1.17;1.08;;;;;;;;;;5029844;28;20050;-79
2021/09/22 06:15:00;;;;;;;0.90;0.90;;;;;;;;;;5029588;28;20091;-79
2021/09/22 06:17:27;;;;;;;2.15;1.15;;;;;;;;;;5029175;28;20088;-79
2021/09/22 06:19:54;;;;;;;1.00;1.00;;;;;;;;;;5020768;28;20034;-79
2021/09/22 06:22:26;;;;;;;4.13;0.90;;;;;;;;;;5019365;28;20121;-79
2021/09/22 06:24:54;;;;;;;1.88;1.10;;;;;;;;;;5029983;28;20045;-79
2021/09/22 06:27:21;;;;;;;2.65;1.00;;;;;;;;;;5024973;28;20072;-79
2021/09/22 06:29:47;;;;;;;2.05;1.05;;;;;;;;;;5022557;28;20481;-79
2021/09/22 06:32:14;;;;;;;1.10;1.00;;;;;;;;;;5029512;28;20053;-79
2021/09/22 06:34:41;;;;;;;0.90;0.90;;;;;;;;;;5029572;28;20135;-79
2021/09/22 06:37:09;;;;;;;2.25;1.67;;;;;;;;;;5029830;28;20128;-79
2021/09/22 06:39:35;;;;;;;4.70;0.93;;;;;;;;;;5029171;28;20362;-79
2021/09/22 06:42:02;;;;;;;2.47;0.90;;;;;;;;;;5015510;28;20068;-79
2021/09/22 06:44:29;;;;;;;1.83;0.98;;;;;;;;;;5028887;28;20042;-79
2021/09/22 06:46:55;;;;;;;1.50;0.95;;;;;;;;;;5028264;28;20038;-79
2021/09/22 06:49:22;;;;;;;3.78;1.00;;;;;;;;;;5029509;28;20049;-80
2021/09/22 06:51:49;;;;;;;1.10;1.00;;;;;;;;;;5042263;28;20077;-80
2021/09/22 06:54:16;;;;;;;1.20;1.20;;;;;;;;;;5059476;28;20052;-80
2021/09/22 06:56:43;;;;;;;2.53;1.30;;;;;;;;;;5034692;28;20069;-80
2021/09/22 06:59:09;;;;;;;1.70;0.90;;;;;;;;;;5030619;28;20087;-79
2021/09/22 07:01:36;;;;;;;2.78;1.00;;;;;;;;;;5026744;28;20042;-79
2021/09/22 07:04:04;;;;;;;7.50;0.98;;;;;;;;;;5033768;28;20069;-79
2021/09/22 07:06:31;;;;;;;3.92;1.13;;;;;;;;;;5032250;28;20130;-79
2021/09/22 07:08:57;;;;;;;1.10;1.10;;;;;;;;;;5033918;28;20111;-79
2021/09/22 07:11:24;;;;;;;2.67;1.00;;;;;;;;;;5033620;28;20178;-80
2021/09/22 07:13:51;;;;;;;3.95;1.10;;;;;;;;;;5015640;28;20081;-80
2021/09/22 07:16:18;;;;;;;1.10;1.10;;;;;;;;;;5026398;28;20463;-80
2021/09/22 07:18:45;;;;;;;1.38;1.10;;;;;;;;;;5036118;28;20076;-80
2021/09/22 07:21:12;;;;;;;1.85;1.10;;;;;;;;;;5016321;28;20073;-80
2021/09/22 07:23:39;;;;;;;1.75;0.80;;;;;;;;;;5032815;28;20029;-80
2021/09/22 07:26:06;;;;;;;2.67;1.02;;;;;;;;;;5031784;28;20486;-80
2021/09/22 07:28:34;;;;;;;1.08;0.90;;;;;;;;;;5033452;28;20517;-80
2021/09/22 07:31:01;;;;;;;4.10;0.80;;;;;;;;;;5032736;28;20037;-80
2021/09/22 07:33:28;;;;;;;4.47;0.82;;;;;;;;;;5048730;28;20041;-80
2021/09/22 07:35:55;;;;;;;2.95;1.10;;;;;;;;;;5031727;28;20348;-80
2021/09/22 07:38:22;;;;;;;2.15;0.88;;;;;;;;;;5049041;28;20543;-80
2021/09/22 07:40:49;;;;;;;1.25;0.80;;;;;;;;;;5007153;28;20073;-80
2021/09/22 07:43:16;;;;;;;1.67;0.90;;;;;;;;;;5024630;28;20534;-80
2021/09/22 07:45:43;;;;;;;2.17;1.45;;;;;;;;;;5033595;28;20466;-80
2021/09/22 07:48:09;;;;;;;2.85;0.90;;;;;;;;;;5030058;28;20694;-80
2021/09/22 07:50:36;;;;;;;1.95;0.90;;;;;;;;;;5035298;28;20072;-80
2021/09/22 07:53:03;;;;;;;1.85;1.00;;;;;;;;;;5015531;28;20076;-80
2021/09/22 07:55:30;;;;;;;1.00;0.82;;;;;;;;;;5046506;28;20080;-80
2021/09/22 07:57:57;;;;;;;4.22;1.00;;;;;;;;;;5032775;28;20045;-80
2021/09/22 08:00:24;;;;;;;1.52;0.80;;;;;;;;;;5028962;28;20057;-80
2021/09/22 08:02:53;;;;;;;1.75;0.82;;;;;;;;;;5031524;28;20060;-80
2021/09/22 08:05:20;;;;;;;1.08;0.80;;;;;;;;;;5030984;28;20037;-80
2021/09/22 08:07:47;;;;;;;3.50;0.80;;;;;;;;;;5029264;28;20057;-80
2021/09/22 08:10:14;;;;;;;0.90;0.90;;;;;;;;;;5032698;28;20038;-80
2021/09/22 08:12:41;;;;;;;1.85;1.17;;;;;;;;;;5047383;28;20577;-80
2021/09/22 08:15:08;;;;;;;0.90;0.90;;;;;;;;;;5028480;28;20116;-80
2021/09/22 08:17:35;;;;;;;1.80;0.80;;;;;;;;;;5019887;28;20490;-80
2021/09/22 08:20:03;;;;;;;2.67;1.42;;;;;;;;;;5030025;28;20041;-80
2021/09/22 08:22:29;;;;;;;1.65;0.73;;;;;;;;;;5032430;28;20116;-80
2021/09/22 08:24:57;;;;;;;1.98;0.80;;;;;;;;;;5031475;28;20057;-80
2021/09/22 08:27:25;;;;;;;1.90;0.90;;;;;;;;;;5032086;28;20037;-80
2021/09/22 08:29:52;;;;;;;1.02;0.88;;;;;;;;;;5030795;28;20517;-80
2021/09/22 08:32:19;;;;;;;2.00;1.00;;;;;;;;;;5061685;28;20033;-80
2021/09/22 08:34:46;;;;;;;2.00;1.33;;;;;;;;;;5031747;28;20034;-80
2021/09/22 08:37:13;;;;;;;4.03;0.80;;;;;;;;;;5023418;28;20124;-80
2021/09/22 08:39:39;;;;;;;4.68;0.80;;;;;;;;;;5024206;28;20079;-80
2021/09/22 08:42:06;;;;;;;0.80;0.80;;;;;;;;;;5044931;28;20553;-80
2021/09/22 08:44:33;;;;;;;1.15;0.88;;;;;;;;;;5029900;28;20062;-80
2021/09/22 08:47:00;;;;;;;0.80;0.80;;;;;;;;;;5063572;28;20065;-80
2021/09/22 08:49:26;;;;;;;3.75;0.70;;;;;;;;;;5031015;28;20041;-80
2021/09/22 08:51:53;;;;;;;0.80;0.80;;;;;;;;;;5030483;28;20084;-80
2021/09/22 08:54:20;;;;;;;7.30;0.80;;;;;;;;;;5048522;28;20122;-80
2021/09/22 08:56:47;;;;;;;0.80;0.80;;;;;;;;;;5024997;28;20046;-80
2021/09/22 08:59:14;;;;;;;0.70;0.70;;;;;;;;;;5028031;28;20124;-81
2021/09/22 09:01:42;;;;;;;2.35;0.70;;;;;;;;;;5022796;28;20452;-81
2021/09/22 09:04:18;;;;;;;0.70;0.70;;;;;;;;;;5031715;28;20091;-81
2021/09/22 09:06:53;;;;;;;0.80;0.80;;;;;;;;;;5029460;28;20056;-81
2021/09/22 09:09:20;;;;;;;1.48;0.70;;;;;;;;;;5032895;28;20068;-81
2021/09/22 09:11:47;;;;;;;0.70;0.70;;;;;;;;;;5030187;28;20447;-81
2021/09/22 09:14:15;;;;;;;0.75;0.75;;;;;;;;;;5031426;28;20037;-81
2021/09/22 09:16:44;;;;;;;1.85;0.70;;;;;;;;;;5025901;28;20514;-80
2021/09/22 09:19:14;;;;;;;0.70;0.70;;;;;;;;;;5022956;28;20049;-80
2021/09/22 09:21:59;;;;;;;0.70;0.70;;;;;;;;;;5029994;28;20061;-80
2021/09/22 09:24:29;;;;;;;0.77;0.70;;;;;;;;;;5031795;28;20050;-80
2021/09/22 09:26:56;;;;;;;0.73;0.60;;;;;;;;;;5028206;28;20136;-80
2021/09/22 09:29:26;;;;;;;0.70;0.70;;;;;;;;;;5030568;28;20095;-80
2021/09/22 09:32:13;;;;;;;0.57;0.57;;;;;;;;;;5030076;28;20076;-80
2021/09/22 09:35:00;;;;;;;1.70;0.80;;;;;;;;;;5028223;28;20037;-80
2021/09/22 09:37:28;;;;;;;0.60;0.60;;;;;;;;;;5017017;28;20052;-80
2021/09/22 09:40:21;;;;;;;2.92;0.70;;;;;;;;;;5110230;27;20438;-55
2021/09/22 09:42:49;;;;;;;1.85;0.70;;;;;;;;;;5035669;28;20470;-54
2021/09/22 09:45:20;;;;;;;0.70;0.70;;;;;;;;;;5049750;28;20036;-56
2021/09/22 09:48:02;;;;;;;0.80;0.70;;;;;;;;;;5043471;28;20041;-57
2021/09/22 09:50:30;;;;;;;0.70;0.70;;;;;;;;;;5041922;28;20091;-56
2021/09/22 09:53:00;;;;;;;0.80;0.80;;;;;;;;;;5045171;28;20033;-56
2021/09/22 09:55:27;;;;;;;1.38;0.70;;;;;;;;;;5042736;28;22851;-56
2021/09/22 09:57:55;;;;;;;2.05;0.60;;;;;;;;;;5046369;28;20064;-56
2021/09/22 10:00:42;;;;;;;0.60;0.60;;;;;;;;;;5042728;28;20091;-56
2021/09/22 10:03:13;;;;;;;1.45;1.35;;;;;;;;;;5043323;28;20029;-56
2021/09/22 10:05:40;;;;;;;0.50;0.50;;;;;;;;;;5044392;28;20033;-56
2021/09/22 10:08:09;;;;;;;0.50;0.50;;;;;;;;;;5044373;28;20697;-57
2021/09/22 10:10:36;;;;;;;1.50;0.70;;;;;;;;;;5041438;28;20459;-57
2021/09/22 10:13:02;;;;;;;0.60;0.60;;;;;;;;;;5045176;28;20491;-56
2021/09/22 10:15:33;;;;;;;2.03;1.00;;;;;;;;;;5041017;28;20045;-56
2021/09/22 10:18:00;;;;;;;0.60;0.60;;;;;;;;;;5041092;28;20041;-57
2021/09/22 10:20:27;;;;;;;0.55;0.55;;;;;;;;;;5042829;28;20110;-55
2021/09/22 10:23:04;;;;;;;0.60;0.60;;;;;;;;;;5045991;28;20041;-56
2021/09/22 10:25:31;;;;;;;0.50;0.50;;;;;;;;;;5042174;28;20060;-56
2021/09/22 10:27:58;;;;;;;0.50;0.50;;;;;;;;;;5044001;28;20040;-56
2021/09/22 10:30:32;;;;;;;0.60;0.60;;;;;;;;;;5044212;28;20095;-57
2021/09/22 10:32:59;;;;;;;0.50;0.50;;;;;;;;;;5044369;28;20517;-56
2021/09/22 10:35:26;;;;;;;0.57;0.57;;;;;;;;;;5045523;28;20091;-57
2021/09/22 10:37:57;;;;;;;0.50;0.50;;;;;;;;;;5042640;28;20124;-56
2021/09/22 10:40:38;;;;;;;0.60;0.60;;;;;;;;;;5045130;28;20033;-55
2021/09/22 10:43:14;;;;;;;0.50;0.50;;;;;;;;;;5040107;28;20038;-56
2021/09/22 10:45:41;;;;;;;0.50;0.50;;;;;;;;;;5040635;28;20068;-56
2021/09/22 10:48:18;;;;;;;0.50;0.50;;;;;;;;;;5041709;28;20037;-56
2021/09/22 10:50:50;;;;;;;0.50;0.50;;;;;;;;;;5030947;28;20068;-56
2021/09/22 10:53:32;;;;;;;1.20;0.50;;;;;;;;;;5029126;28;20041;-56
2021/09/22 10:56:07;;;;;;;0.50;0.50;;;;;;;;;;5022125;28;20816;-56
2021/09/22 10:58:38;;;;;;;0.60;0.60;;;;;;;;;;5029481;28;20045;-54
2021/09/22 11:01:05;;;;;;;1.52;0.60;;;;;;;;;;5022198;28;20148;-56
2021/09/22 11:03:51;;;;;;;0.60;0.60;;;;;;;;;;5028480;28;20662;-57
2021/09/22 11:06:36;;;;;;;0.50;0.50;;;;;;;;;;5019768;28;20485;-57
2021/09/22 11:09:06;;;;;;;0.50;0.50;;;;;;;;;;5032048;28;20050;-56
2021/09/22 11:11:55;;;;;;;0.50;0.50;;;;;;;;;;5030551;28;20092;-56
2021/09/22 11:14:44;;;;;;;0.50;0.50;;;;;;;;;;5027304;28;20468;-53
2021/09/22 11:17:14;;;;;;;0.50;0.50;;;;;;;;;;5018198;28;20042;-56
2021/09/22 11:19:42;;;;;;;0.52;0.50;;;;;;;;;;5028524;28;20037;-57
2021/09/22 11:22:12;;;;;;;0.50;0.50;;;;;;;;;;5030454;28;20041;-57
2021/09/22 11:24:41;;;;;;;0.50;0.50;;;;;;;;;;5018748;28;20076;-57
2021/09/22 11:27:10;;;;;;;0.50;0.50;;;;;;;;;;5029072;28;20409;-57
2021/09/22 11:29:46;;;;;;;0.50;0.50;;;;;;;;;;5028964;28;20045;-56
2021/09/22 11:32:32;;;;;;;0.50;0.50;;;;;;;;;;5022276;28;20042;-57
2021/09/22 11:35:05;;;;;;;0.50;0.50;;;;;;;;;;5023821;28;20060;-57
2021/09/22 11:37:39;;;;;;;0.50;0.50;;;;;;;;;;5017672;28;20041;-57
2021/09/22 11:40:14;;;;;;;0.50;0.50;;;;;;;;;;5029967;28;20042;-58
2021/09/22 11:42:51;;;;;;;0.43;0.43;;;;;;;;;;5027674;28;20119;-57
2021/09/22 11:45:19;;;;;;;0.50;0.50;;;;;;;;;;5021948;28;20038;-58
2021/09/22 11:47:46;;;;;;;0.50;0.50;;;;;;;;;;5029040;28;20065;-58
2021/09/22 11:50:23;;;;;;;0.50;0.50;;;;;;;;;;5031144;28;20124;-58
2021/09/22 11:52:49;;;;;;;0.50;0.50;;;;;;;;;;5029982;28;20041;-58
2021/09/22 11:55:18;;;;;;;0.50;0.50;;;;;;;;;;5030238;28;20073;-59
2021/09/22 11:57:44;;;;;;;0.50;0.50;;;;;;;;;;5031220;28;20463;-58
2021/09/22 12:00:18;;;;;;;0.43;0.43;;;;;;;;;;5028891;28;20095;-59
2021/09/22 12:02:45;;;;;;;0.50;0.50;;;;;;;;;;5028129;28;20068;-58
2021/09/22 12:05:13;;;;;;;0.50;0.50;;;;;;;;;;5030760;28;20056;-58
2021/09/22 12:07:41;;;;;;;0.50;0.50;;;;;;;;;;5029549;28;20061;-58
2021/09/22 12:10:08;;;;;;;0.50;0.50;;;;;;;;;;5028344;28;20457;-58
2021/09/22 12:12:36;;;;;;;0.40;0.40;;;;;;;;;;5029135;28;20046;-59
2021/09/22 12:15:04;;;;;;;0.50;0.50;;;;;;;;;;5030419;28;20075;-58
2021/09/22 12:17:33;;;;;;;0.40;0.40;;;;;;;;;;5030561;28;20043;-59
2021/09/22 12:20:00;;;;;;;0.40;0.40;;;;;;;;;;5027577;28;20056;-58
2021/09/22 12:22:28;;;;;;;0.50;0.50;;;;;;;;;;5028230;28;20091;-56
2021/09/22 12:24:55;;;;;;;0.90;0.90;;;;;;;;;;5030720;28;20743;-57
2021/09/22 12:27:23;;;;;;;0.40;0.40;;;;;;;;;;5028493;28;20033;-58
2021/09/22 12:29:51;;;;;;;0.43;0.43;;;;;;;;;;5030229;28;20091;-58
2021/09/22 12:32:18;;;;;;;0.40;0.40;;;;;;;;;;5023115;28;20073;-56
2021/09/22 12:34:45;;;;;;;0.40;0.40;;;;;;;;;;5024070;28;20048;-58
2021/09/22 12:37:16;;;;;;;0.40;0.40;;;;;;;;;;5030053;28;20052;-58
2021/09/22 12:39:52;;;;;;;0.40;0.40;;;;;;;;;;5028907;28;20046;-58
2021/09/22 12:42:20;;;;;;;1.45;0.40;;;;;;;;;;5022217;28;20038;-58
2021/09/22 12:44:52;;;;;;;0.40;0.40;;;;;;;;;;5030005;28;20033;-56
2021/09/22 12:47:18;;;;;;;0.40;0.40;;;;;;;;;;5029562;28;20481;-59
2021/09/22 12:50:04;;;;;;;0.40;0.40;;;;;;;;;;5030023;28;20103;-58
2021/09/22 12:52:32;;;;;;;0.40;0.40;;;;;;;;;;5023705;28;20466;-58
2021/09/22 12:55:09;;;;;;;0.40;0.40;;;;;;;;;;5016225;28;20116;-59
2021/09/22 12:57:39;;;;;;;0.40;0.40;;;;;;;;;;5029252;28;20403;-59
2021/09/22 13:00:25;;;;;;;1.33;0.40;;;;;;;;;;5029144;28;20397;-59
2021/09/22 13:03:05;;;;;;;0.40;0.40;;;;;;;;;;5025378;28;20038;-58
2021/09/22 13:05:39;;;;;;;0.40;0.40;;;;;;;;;;5030205;28;20040;-58
2021/09/22 13:08:06;;;;;;;0.40;0.40;;;;;;;;;;5028905;28;20045;-59
2021/09/22 13:10:52;;;;;;;0.40;0.40;;;;;;;;;;5030545;28;20048;-59
2021/09/22 13:13:19;;;;;;;0.55;0.55;;;;;;;;;;5029350;28;20437;-58
2021/09/22 13:15:47;;;;;;;0.85;0.50;;;;;;;;;;5026749;28;20049;-58
2021/09/22 13:18:13;;;;;;;0.45;0.45;;;;;;;;;;5017096;28;20042;-59
2021/09/22 13:20:40;;;;;;;0.40;0.40;;;;;;;;;;5026997;28;20037;-59
2021/09/22 13:23:07;;;;;;;0.50;0.40;;;;;;;;;;5028943;28;20489;-58
2021/09/22 13:25:34;;;;;;;0.50;0.50;;;;;;;;;;5027851;28;20098;-59
2021/09/22 13:28:00;;;;;;;0.73;0.40;;;;;;;;;;5029453;28;20421;-58
2021/09/22 13:30:27;;;;;;;0.40;0.40;;;;;;;;;;5029730;28;20489;-59
2021/09/22 13:32:54;;;;;;;0.40;0.40;;;;;;;;;;5027272;28;20092;-59
2021/09/22 13:35:21;;;;;;;0.50;0.50;;;;;;;;;;5028393;28;20048;-59
2021/09/22 13:37:47;;;;;;;1.05;0.40;;;;;;;;;;5029171;28;20069;-58
2021/09/22 13:40:14;;;;;;;0.40;0.40;;;;;;;;;;5029459;28;20041;-59
2021/09/22 13:42:41;;;;;;;0.40;0.40;;;;;;;;;;5028491;28;20029;-59
2021/09/22 13:45:07;;;;;;;1.70;0.60;;;;;;;;;;5026726;28;20512;-59
2021/09/22 13:47:34;;;;;;;0.40;0.40;;;;;;;;;;5028430;28;20473;-58
2021/09/22 13:50:01;;;;;;;1.45;0.40;;;;;;;;;;5029024;28;20375;-59
2021/09/22 13:52:27;;;;;;;0.40;0.40;;;;;;;;;;5028888;28;20041;-59
2021/09/22 13:54:54;;;;;;;0.40;0.40;;;;;;;;;;5029246;28;20563;-59
2021/09/22 13:57:21;;;;;;;0.40;0.40;;;;;;;;;;5028888;28;20053;-58
2021/09/22 13:59:48;;;;;;;0.50;0.50;;;;;;;;;;5028569;28;20029;-59
2021/09/22 14:02:14;;;;;;;0.40;0.40;;;;;;;;;;5029272;28;20657;-59
2021/09/22 14:04:42;;;;;;;0.40;0.40;;;;;;;;;;5028604;28;20045;-59
2021/09/22 14:07:10;;;;;;;0.40;0.40;;;;;;;;;;5028176;28;20048;-59
2021/09/22 14:09:36;;;;;;;0.40;0.40;;;;;;;;;;5028610;28;20095;-59
2021/09/22 14:12:03;;;;;;;1.73;0.50;;;;;;;;;;5027310;28;20045;-58
2021/09/22 14:14:30;;;;;;;0.50;0.50;;;;;;;;;;5028249;28;20505;-59
2021/09/22 14:16:56;;;;;;;0.52;0.40;;;;;;;;;;5027335;28;20045;-59
2021/09/22 14:19:23;;;;;;;0.50;0.50;;;;;;;;;;5026971;28;20536;-59
2021/09/22 14:21:50;;;;;;;0.40;0.40;;;;;;;;;;5028310;28;20577;-59
2021/09/22 14:24:17;;;;;;;0.40;0.40;;;;;;;;;;5028587;28;20501;-58
2021/09/22 14:26:44;;;;;;;0.40;0.40;;;;;;;;;;5031969;28;20125;-58
2021/09/22 14:29:11;;;;;;;0.40;0.40;;;;;;;;;;5029017;28;20091;-59
2021/09/22 14:31:38;;;;;;;0.57;0.50;;;;;;;;;;5022958;28;20041;-59
2021/09/22 14:34:05;;;;;;;0.40;0.40;;;;;;;;;;5032211;28;20045;-59
2021/09/22 14:36:32;;;;;;;0.60;0.50;;;;;;;;;;5031928;28;20041;-57
2021/09/22 14:39:02;;;;;;;0.50;0.50;;;;;;;;;;5031490;28;20049;-59
2021/09/22 14:41:29;;;;;;;1.27;0.43;;;;;;;;;;5032199;28;20551;-59
2021/09/22 14:43:56;;;;;;;0.50;0.50;;;;;;;;;;5030271;28;20040;-59
2021/09/22 14:46:22;;;;;;;0.40;0.40;;;;;;;;;;5030522;28;20044;-57
2021/09/22 14:48:49;;;;;;;1.38;0.50;;;;;;;;;;5030731;28;20049;-58
2021/09/22 14:51:16;;;;;;;0.50;0.50;;;;;;;;;;5015410;28;20132;-59